< Typhoon 201212 2012 Season Typhoon 201214 >
Typhoon 201213 (KAI-TAK)
General InformationTrack Information on Google MapsDetailed Wind InformationAccess Analytics MapList of All Images || NewsDisaster Info.WeblogTrackbackTyphoon FrontTwiphoonTyphoon Now!Typhoon ImaginationResourceGoogle EarthGE AnimationAtom FeedGeoJSON
Detalied Best Track (Time Zone = UTC)
Year Month Day Hour Lat. Long. Pressure (hPa) Wind (kt) Class Image Chart
2012 8 12 00 16.8 132.0 1004 0 2 Image Chart
2012 8 12 06 16.8 130.9 1002 0 2 Image Chart
2012 8 12 12 16.8 130.1 1000 0 2 Image Chart
2012 8 12 18 16.8 129.4 1000 0 2 Image Chart
2012 8 13 00 16.6 128.2 998 35 3 Image Chart
2012 8 13 06 16.5 127.0 998 35 3 Image Chart
2012 8 13 12 16.6 126.5 994 40 3 Image Chart
2012 8 13 18 16.8 125.9 992 40 3 Image Chart
2012 8 14 00 17.0 125.2 992 40 3 Image Chart
2012 8 14 06 17.0 124.4 992 40 3 Image Chart
2012 8 14 12 17.2 123.8 992 40 3 Image Chart
2012 8 14 18 17.5 123.4 992 40 3 Image Chart
2012 8 15 00 18.0 122.7 992 40 3 Image Chart
2012 8 15 06 18.7 120.9 990 45 3 Image Chart
2012 8 15 12 18.8 119.5 985 50 4 Image Chart
2012 8 15 18 18.8 118.2 975 60 4 Image Chart
2012 8 16 00 19.0 117.1 975 60 4 Image Chart
2012 8 16 06 19.3 115.7 975 60 4 Image Chart
2012 8 16 12 19.5 114.3 970 65 5 Image Chart
2012 8 16 18 20.1 112.7 970 65 5 Image Chart
2012 8 17 00 20.8 111.3 970 65 5 Image Chart
2012 8 17 06 21.2 109.7 975 60 4 Image Chart
2012 8 17 12 21.0 107.8 975 60 4 Image Chart
2012 8 17 18 21.5 106.8 985 50 4 Image Chart
2012 8 18 00 21.8 105.1 992 40 3 Image Chart
2012 8 18 06 22.6 103.2 996 0 2 Image Chart
2012 8 18 12 23.2 101.8 1000 0 2 Image Chart
Japan Meteorological Agency Best Track Data | Correction Date : 2012-09-26
< Typhoon 201212 2012 Season Typhoon 201214 >

Help